Time,TemperatureF,DewpointF,PressureIn,WindDirection,WindDirectionDegrees,WindSpeedMPH,WindSpeedGustMPH,Humidity,HourlyPrecipIn,Conditions,Clouds,dailyrainin,SoftwareType,DateUTC
2013-11-17 00:14:00,65.5,64.0,29.71,South,180,17.0,24.0,93,0.09,,,0.08,weatherlink.com 1.10,2013-11-17 06:14:00,
2013-11-17 00:29:00,65.2,64.0,29.70,SSE,166,10.0,20.0,94,0.11,,,0.11,weatherlink.com 1.10,2013-11-17 06:29:00,
2013-11-17 00:44:00,65.2,63.0,29.69,SSE,157,9.0,16.0,93,0.14,,,0.14,weatherlink.com 1.10,2013-11-17 06:44:00,
2013-11-17 00:59:00,65.0,63.0,29.70,SSE,159,11.0,17.0,94,0.14,,,0.14,weatherlink.com 1.10,2013-11-17 06:59:00,
2013-11-17 01:14:00,64.9,63.0,29.69,South,173,13.0,16.0,94,0.11,,,0.19,weatherlink.com 1.10,2013-11-17 07:14:00,
2013-11-17 01:29:00,65.2,64.0,29.69,SSW,194,15.0,22.0,94,0.24,,,0.35,weatherlink.com 1.10,2013-11-17 07:29:00,
2013-11-17 01:44:00,65.0,63.0,29.70,South,171,9.0,33.0,94,0.82,,,0.96,weatherlink.com 1.10,2013-11-17 07:44:00,
2013-11-17 01:59:00,64.9,63.0,29.70,South,183,10.0,13.0,94,0.97,,,1.11,weatherlink.com 1.10,2013-11-17 07:59:00,
2013-11-17 02:14:00,65.1,63.0,29.69,South,190,9.0,15.0,94,0.98,,,1.17,weatherlink.com 1.10,2013-11-17 08:14:00,
2013-11-17 02:29:00,65.3,64.0,29.68,South,175,9.0,12.0,94,0.81,,,1.17,weatherlink.com 1.10,2013-11-17 08:29:00,
2013-11-17 02:44:00,65.3,63.0,29.67,South,169,7.0,11.0,93,0.20,,,1.17,weatherlink.com 1.10,2013-11-17 08:44:00,
2013-11-17 02:59:00,65.4,63.0,29.66,SSW,206,13.0,19.0,93,0.07,,,1.18,weatherlink.com 1.10,2013-11-17 08:59:00,
2013-11-17 03:14:00,65.0,63.0,29.67,SSE,168,15.0,21.0,93,0.03,,,1.20,weatherlink.com 1.10,2013-11-17 09:14:00,
2013-11-17 03:29:00,64.9,63.0,29.67,SSE,167,15.0,20.0,93,0.09,,,1.26,weatherlink.com 1.10,2013-11-17 09:29:00,
2013-11-17 03:44:00,65.0,63.0,29.68,SSE,163,7.0,19.0,94,0.16,,,1.33,weatherlink.com 1.10,2013-11-17 09:44:00,
2013-11-17 03:59:00,64.8,63.0,29.68,SSE,155,9.0,12.0,94,0.16,,,1.34,weatherlink.com 1.10,2013-11-17 09:59:00,
2013-11-17 04:15:00,64.7,63.0,29.67,SSE,155,8.0,11.0,94,0.14,,,1.34,weatherlink.com 1.10,2013-11-17 10:15:00,
2013-11-17 04:30:00,65.0,63.0,29.66,SSE,161,11.0,14.0,93,0.07,,,1.34,weatherlink.com 1.10,2013-11-17 10:30:00,
2013-11-17 04:45:00,65.1,63.0,29.65,South,178,10.0,16.0,93,0.01,,,1.34,weatherlink.com 1.10,2013-11-17 10:45:00,
2013-11-17 05:00:00,65.0,63.0,29.64,South,171,14.0,16.0,93,0.00,,,1.34,weatherlink.com 1.10,2013-11-17 11:00:00,
2013-11-17 05:15:00,65.0,63.0,29.64,South,189,15.0,15.0,92,0.00,,,1.34,weatherlink.com 1.10,2013-11-17 11:15:00,
2013-11-17 05:30:00,65.3,63.0,29.64,South,175,12.0,23.0,91,0.00,,,1.34,weatherlink.com 1.10,2013-11-17 11:30:00,
2013-11-17 05:45:00,65.2,63.0,29.64,SSW,206,11.0,18.0,91,0.00,,,1.34,weatherlink.com 1.10,2013-11-17 11:45:00,
2013-11-17 06:00:00,65.1,63.0,29.64,South,170,13.0,19.0,91,0.00,,,1.34,weatherlink.com 1.10,2013-11-17 12:00:00,
2013-11-17 06:15:00,65.5,63.0,29.64,South,176,11.0,17.0,92,0.00,,,1.34,weatherlink.com 1.10,2013-11-17 12:15:00,
2013-11-17 06:30:00,66.1,64.0,29.64,South,187,16.0,26.0,91,0.00,,,1.34,weatherlink.com 1.10,2013-11-17 12:30:00,
2013-11-17 06:45:00,66.3,64.0,29.64,South,171,15.0,22.0,91,0.00,,,1.34,weatherlink.com 1.10,2013-11-17 12:45:00,
2013-11-17 07:00:00,66.5,64.0,29.64,SSW,195,9.0,22.0,91,0.00,,,1.34,weatherlink.com 1.10,2013-11-17 13:00:00,
2013-11-17 07:15:00,66.8,64.0,29.64,South,177,14.0,28.0,90,0.00,,,1.34,weatherlink.com 1.10,2013-11-17 13:15:00,
2013-11-17 07:30:00,66.9,64.0,29.64,South,171,17.0,24.0,91,0.00,,,1.34,weatherlink.com 1.10,2013-11-17 13:30:00,
2013-11-17 07:45:00,67.1,64.0,29.62,South,187,17.0,27.0,90,0.00,,,1.34,weatherlink.com 1.10,2013-11-17 13:45:00,
2013-11-17 08:00:00,67.4,65.0,29.62,South,180,15.0,23.0,90,0.00,,,1.34,weatherlink.com 1.10,2013-11-17 14:00:00,
2013-11-17 08:15:00,67.4,65.0,29.64,SSW,202,11.0,21.0,91,0.00,,,1.34,weatherlink.com 1.10,2013-11-17 14:15:00,
2013-11-17 08:30:00,67.7,65.0,29.64,SSE,163,17.0,22.0,90,0.00,,,1.34,weatherlink.com 1.10,2013-11-17 14:30:00,
2013-11-17 08:45:00,67.9,65.0,29.62,SSE,159,13.0,21.0,90,0.00,,,1.34,weatherlink.com 1.10,2013-11-17 14:45:00,
2013-11-17 09:00:00,68.2,65.0,29.61,South,173,18.0,22.0,90,0.00,,,1.34,weatherlink.com 1.10,2013-11-17 15:00:00,
2013-11-17 09:15:00,68.1,65.0,29.61,South,178,12.0,21.0,90,0.00,,,1.34,weatherlink.com 1.10,2013-11-17 15:15:00,
2013-11-17 09:30:00,68.5,66.0,29.61,SSE,163,10.0,18.0,90,0.00,,,1.34,weatherlink.com 1.10,2013-11-17 15:30:00,
2013-11-17 09:45:00,68.6,65.0,29.60,SSE,153,20.0,24.0,89,0.00,,,1.34,weatherlink.com 1.10,2013-11-17 15:45:00,
2013-11-17 10:00:00,68.6,66.0,29.60,South,187,13.0,22.0,90,0.00,,,1.34,weatherlink.com 1.10,2013-11-17 16:00:00,
2013-11-17 10:15:00,68.3,65.0,29.59,SSE,165,13.0,22.0,90,0.00,,,1.34,weatherlink.com 1.10,2013-11-17 16:15:00,
2013-11-17 10:30:00,68.3,66.0,29.59,SSE,164,12.0,25.0,91,0.00,,,1.34,weatherlink.com 1.10,2013-11-17 16:30:00,
2013-11-17 10:45:00,68.3,66.0,29.59,South,190,9.0,22.0,91,0.00,,,1.34,weatherlink.com 1.10,2013-11-17 16:45:00,
2013-11-17 11:00:00,68.6,66.0,29.57,South,173,13.0,23.0,91,0.00,,,1.34,weatherlink.com 1.10,2013-11-17 17:00:00,
2013-11-17 11:15:00,69.2,66.0,29.55,South,175,20.0,24.0,90,0.00,,,1.34,weatherlink.com 1.10,2013-11-17 17:15:00,
2013-11-17 11:30:00,70.1,67.0,29.54,South,182,12.0,22.0,88,0.00,,,1.34,weatherlink.com 1.10,2013-11-17 17:30:00,
2013-11-17 11:45:00,70.6,67.0,29.52,SSW,208,10.0,22.0,88,0.00,,,1.34,weatherlink.com 1.10,2013-11-17 17:45:00,
2013-11-17 12:00:00,70.9,67.0,29.50,SSE,167,16.0,25.0,87,0.00,,,1.34,weatherlink.com 1.10,2013-11-17 18:00:00,
2013-11-17 12:15:00,72.1,67.0,29.46,SSE,162,22.0,30.0,85,0.00,,,1.34,weatherlink.com 1.10,2013-11-17 18:15:00,
2013-11-17 12:30:00,72.6,68.0,29.48,SSE,167,8.0,27.0,84,0.00,,,1.34,weatherlink.com 1.10,2013-11-17 18:30:00,
2013-11-17 12:45:00,71.9,67.0,29.48,South,175,9.0,23.0,85,0.00,,,1.34,weatherlink.com 1.10,2013-11-17 18:45:00,
2013-11-17 13:00:00,72.2,67.0,29.49,SSW,192,19.0,20.0,84,0.00,,,1.34,weatherlink.com 1.10,2013-11-17 19:00:00,
2013-11-17 13:15:00,73.2,67.0,29.48,South,173,14.0,23.0,82,0.00,,,1.34,weatherlink.com 1.10,2013-11-17 19:15:00,
2013-11-17 13:31:00,73.4,68.0,29.49,SW,221,7.0,25.0,82,0.00,,,1.34,weatherlink.com 1.10,2013-11-17 19:31:00,
2013-11-17 13:46:00,74.0,66.0,29.49,WSW,240,9.0,18.0,76,0.00,,,1.34,weatherlink.com 1.10,2013-11-17 19:46:00,
2013-11-17 14:01:00,74.9,67.0,29.49,WSW,255,9.0,17.0,75,0.00,,,1.34,weatherlink.com 1.10,2013-11-17 20:01:00,
2013-11-17 14:16:00,74.5,67.0,29.51,SW,229,4.0,16.0,77,0.00,,,1.34,weatherlink.com 1.10,2013-11-17 20:16:00,
2013-11-17 14:31:00,76.0,66.0,29.52,WNW,298,9.0,18.0,72,0.00,,,1.34,weatherlink.com 1.10,2013-11-17 20:31:00,
2013-11-17 14:46:00,76.2,64.0,29.53,WSW,254,7.0,20.0,65,0.00,,,1.34,weatherlink.com 1.10,2013-11-17 20:46:00,
2013-11-17 15:01:00,75.8,51.0,29.55,WNW,282,15.0,24.0,42,0.00,,,1.34,weatherlink.com 1.10,2013-11-17 21:01:00,
2013-11-17 15:16:00,75.1,50.0,29.56,NW,310,10.0,19.0,41,0.00,,,1.34,weatherlink.com 1.10,2013-11-17 21:16:00,
2013-11-17 15:31:00,74.1,45.0,29.58,WNW,301,9.0,25.0,36,0.00,,,1.34,weatherlink.com 1.10,2013-11-17 21:31:00,
2013-11-17 15:46:00,72.9,44.0,29.60,WNW,297,7.0,14.0,35,0.00,,,1.34,weatherlink.com 1.10,2013-11-17 21:46:00,
2013-11-17 16:01:00,71.9,43.0,29.62,NW,309,12.0,18.0,35,0.00,,,1.34,weatherlink.com 1.10,2013-11-17 22:01:00,
2013-11-17 16:16:00,70.7,42.0,29.64,NW,313,8.0,16.0,35,0.00,,,1.34,weatherlink.com 1.10,2013-11-17 22:16:00,
2013-11-17 16:31:00,69.1,40.0,29.65,West,278,5.0,13.0,35,0.00,,,1.34,weatherlink.com 1.10,2013-11-17 22:31:00,
2013-11-17 16:46:00,68.2,36.0,29.66,WNW,303,8.0,18.0,31,0.00,,,1.34,weatherlink.com 1.10,2013-11-17 22:46:00,
2013-11-17 17:01:00,67.6,37.0,29.68,NW,306,7.0,14.0,32,0.00,,,1.34,weatherlink.com 1.10,2013-11-17 23:01:00,
2013-11-17 17:16:00,66.7,37.0,29.68,NW,311,6.0,16.0,34,0.00,,,1.34,weatherlink.com 1.10,2013-11-17 23:16:00,
2013-11-17 17:31:00,65.9,36.0,29.70,WNW,291,5.0,17.0,33,0.00,,,1.34,weatherlink.com 1.10,2013-11-17 23:31:00,
2013-11-17 17:47:00,64.8,36.0,29.71,NW,319,4.0,10.0,35,0.00,,,1.34,weatherlink.com 1.10,2013-11-17 23:47:00,
2013-11-17 18:02:00,64.4,37.0,29.72,WNW,296,4.0,10.0,36,0.00,,,1.34,weatherlink.com 1.10,2013-11-18 00:02:00,
2013-11-17 18:17:00,64.3,36.0,29.73,WNW,295,4.0,8.0,35,0.00,,,1.34,weatherlink.com 1.10,2013-11-18 00:17:00,
2013-11-17 18:32:00,64.6,35.0,29.74,West,267,1.0,9.0,33,0.00,,,1.34,weatherlink.com 1.10,2013-11-18 00:32:00,
2013-11-17 18:47:00,63.6,35.0,29.75,West,272,2.0,4.0,35,0.00,,,1.34,weatherlink.com 1.10,2013-11-18 00:47:00,
2013-11-17 19:02:00,62.7,35.0,29.75,SW,219,0.0,4.0,36,0.00,,,1.34,weatherlink.com 1.10,2013-11-18 01:02:00,
2013-11-17 19:17:00,62.8,35.0,29.75,SW,233,2.0,7.0,36,0.00,,,1.34,weatherlink.com 1.10,2013-11-18 01:17:00,
2013-11-17 19:32:00,63.5,34.0,29.77,WSW,242,2.0,12.0,34,0.00,,,1.34,weatherlink.com 1.10,2013-11-18 01:32:00,
2013-11-17 19:47:00,62.6,36.0,29.77,NW,316,6.0,9.0,38,0.00,,,1.34,weatherlink.com 1.10,2013-11-18 01:47:00,
2013-11-17 20:02:00,62.5,35.0,29.79,West,263,6.0,13.0,36,0.00,,,1.34,weatherlink.com 1.10,2013-11-18 02:02:00,
2013-11-17 20:17:00,63.1,33.0,29.80,NW,316,12.0,22.0,32,0.00,,,1.34,weatherlink.com 1.10,2013-11-18 02:17:00,
2013-11-17 20:32:00,61.9,32.0,29.82,WNW,298,7.0,16.0,33,0.00,,,1.34,weatherlink.com 1.10,2013-11-18 02:32:00,
2013-11-17 20:47:00,61.5,33.0,29.84,WNW,284,7.0,17.0,34,0.00,,,1.34,weatherlink.com 1.10,2013-11-18 02:47:00,
2013-11-17 21:03:00,60.8,33.0,29.85,NW,311,9.0,15.0,35,0.00,,,1.34,weatherlink.com 1.10,2013-11-18 03:03:00,
2013-11-17 21:18:00,60.4,34.0,29.85,NW,315,9.0,18.0,37,0.00,,,1.34,weatherlink.com 1.10,2013-11-18 03:18:00,
2013-11-17 21:33:00,59.8,34.0,29.86,NW,315,12.0,15.0,38,0.00,,,1.34,weatherlink.com 1.10,2013-11-18 03:33:00,
2013-11-17 21:48:00,58.9,34.0,29.87,NW,315,12.0,13.0,40,0.00,,,1.34,weatherlink.com 1.10,2013-11-18 03:48:00,
2013-11-17 22:03:00,58.9,34.0,29.88,NW,314,10.0,16.0,40,0.00,,,1.34,weatherlink.com 1.10,2013-11-18 04:03:00,
2013-11-17 22:18:00,58.0,35.0,29.89,NNW,336,9.0,13.0,42,0.00,,,1.34,weatherlink.com 1.10,2013-11-18 04:18:00,
2013-11-17 22:33:00,57.5,36.0,29.90,NW,317,12.0,13.0,44,0.00,,,1.34,weatherlink.com 1.10,2013-11-18 04:33:00,
2013-11-17 22:48:00,57.0,37.0,29.91,NNW,336,10.0,16.0,47,0.00,,,1.34,weatherlink.com 1.10,2013-11-18 04:48:00,
2013-11-17 23:03:00,55.4,40.0,29.91,NNW,340,10.0,16.0,57,0.00,,,1.34,weatherlink.com 1.10,2013-11-18 05:03:00,
2013-11-17 23:18:00,54.7,42.0,29.92,NNW,331,9.0,15.0,62,0.00,,,1.34,weatherlink.com 1.10,2013-11-18 05:18:00,
2013-11-17 23:33:00,54.1,43.0,29.92,NNW,327,10.0,15.0,66,0.00,,,1.34,weatherlink.com 1.10,2013-11-18 05:33:00,
2013-11-17 23:48:00,53.2,43.0,29.94,NNW,329,1.0,9.0,69,0.00,,,1.34,weatherlink.com 1.10,2013-11-18 05:48:00,